Weather at Ellison Onizuka Kona International Airport at Keahole

Public forecast

Using degrees Fahrenheit for public forecast. Weather courtesy of forecast.io.

Current aviation weather report (METAR) for Ellison Onizuka Kona International Airport at Keahole

Retrieved 2021/10/25 12:53 UTC (48 minutes ago):

PHKO 251253Z AUTO 08005KT 10SM CLR 24/18 A3001

Aviation forecast (TAF) for Ellison Onizuka Kona International Airport at Keahole

Retrieved 2021/10/25 12:27 UTC (1 hour ago):

TAF PHKO 251125Z 2512/2612 14007KT P6SM FEW035 BKN050 FM252000 22009KT P6SM FEW035 SCT060 FM252300 19010KT P6SM FEW035 SCT060 FM260500 15008KT P6SM FEW035 BKN060